CDT,Max TemperatureF,Mean TemperatureF,Min TemperatureF,Max Dew PointF,MeanDew PointF,Min DewpointF,Max Humidity, Mean Humidity, Min Humidity, Max Sea Level PressureIn, Mean Sea Level PressureIn, Min Sea Level PressureIn, Max VisibilityMiles, Mean VisibilityMiles, Min VisibilityMiles, Max Wind SpeedMPH, Mean Wind SpeedMPH, Max Gust SpeedMPH,PrecipitationIn, CloudCover, Events, WindDirDegrees
2014-4-1,46,32,18,38,20,10,93,78,54,30.14,29.66,29.38,10,5,1,14,8,25,0.02,7,Rain-Snow,256
2014-4-2,43,26,10,18,13,6,88,57,33,30.25,30.21,30.15,10,10,10,9,2,,0.00,1,,44
2014-4-3,37,32,27,27,23,10,93,77,34,30.19,29.96,29.80,10,4,0,15,9,22,0.29,8,Fog-Snow,45
2014-4-4,36,25,15,29,24,12,92,86,67,30.04,29.79,29.66,10,2,0,14,9,23,0.52,6,Fog-Snow,23
2014-4-5,43,24,6,29,13,0,96,75,40,30.13,30.04,29.97,10,6,0,14,2,21,0.00,1,Fog,197
2014-4-6,53,42,28,33,29,26,89,59,43,29.99,29.89,29.83,10,10,9,10,7,,0.00,2,Rain,192
2014-4-7,54,38,24,36,29,21,92,76,47,29.88,29.82,29.78,10,9,7,5,1,,0.00,4,Rain,258
2014-4-8,48,36,23,29,24,19,92,63,35,29.99,29.91,29.78,10,10,9,8,2,,0.00,2,,333
2014-4-9,57,39,21,37,27,17,88,58,37,29.97,29.75,29.45,10,10,10,18,5,29,0.00,2,,190
2014-4-10,54,42,28,41,24,12,75,47,20,29.94,29.73,29.48,10,10,10,14,6,26,0.00,2,,278
2014-4-11,57,40,25,37,27,21,93,63,28,30.01,29.96,29.93,10,10,7,9,2,20,0.02,3,Rain,244
2014-4-12,46,42,37,38,36,26,97,82,53,30.01,29.91,29.81,10,9,4,15,6,22,0.49,8,Rain,60
2014-4-13,41,36,32,34,31,23,93,79,60,29.94,29.86,29.77,10,10,3,8,3,,0.00,8,,23
2014-4-14,33,28,21,21,11,3,67,51,31,30.11,29.99,29.87,10,10,10,10,7,22,0.00,7,,345
2014-4-15,33,24,16,11,5,-2,74,49,23,30.17,30.13,30.10,10,10,10,7,2,,0.00,1,,307
2014-4-16,30,24,19,27,21,8,93,81,47,30.19,30.12,30.03,10,3,0,16,7,23,0.35,8,Fog-Snow,70
2014-4-17,36,30,21,30,26,19,92,87,67,30.36,30.16,30.02,10,5,0,10,6,,0.18,7,Fog-Snow,12
2014-4-18,45,30,15,25,16,11,100,65,34,30.45,30.38,30.32,10,6,0,9,1,,0.00,4,Fog,75
2014-4-19,51,44,36,42,31,18,86,63,43,30.32,30.15,30.04,10,10,5,23,10,36,0.07,6,Rain,160
2014-4-20,71,52,33,46,36,27,96,72,20,30.09,30.04,30.00,10,7,1,7,1,,0.00,4,,290
2014-4-21,68,50,33,48,33,25,93,64,23,30.06,29.93,29.86,10,9,2,13,2,22,0.00,3,,278
2014-4-22,53,40,28,25,23,20,78,52,31,30.14,30.10,30.05,10,10,10,13,3,21,0.00,2,,11
2014-4-23,53,38,24,35,25,21,89,61,31,30.18,30.12,30.03,10,10,6,13,4,25,0.06,3,Rain,156
2014-4-24,39,36,34,39,34,17,100,91,48,30.06,29.83,29.67,10,5,2,13,7,20,0.58,8,Rain-Snow,106
2014-4-25,46,37,28,37,34,26,100,85,58,29.99,29.75,29.67,10,8,1,12,5,21,0.00,7,Rain,259
2014-4-26,52,37,23,30,27,20,96,75,39,30.13,30.06,29.98,10,9,1,14,4,25,0.00,4,Snow,55
2014-4-27,39,38,36,38,28,12,100,71,35,30.09,30.00,29.91,10,9,4,17,11,29,0.32,7,Rain,81
2014-4-28,48,42,37,38,34,31,93,78,58,29.88,29.85,29.81,10,9,4,18,13,29,0.54,8,Rain,64
2014-4-29,39,36,32,32,31,29,96,88,73,29.81,29.75,29.71,10,4,0,17,12,30,0.38,8,Fog-Rain-Snow,29
2014-4-30,41,37,33,39,35,32,97,94,86,29.77,29.74,29.69,10,9,2,8,4,,0.11,8,Rain,15